sensor_id;sensor_type;location;lat;lon;timestamp;pressure;altitude;pressure_sealevel;temperature;humidity
45541;BME280;31265;49.680;8.608;2022-11-06T00:01:55;101008.34;;;5.67;100.00
45541;BME280;31265;49.680;8.608;2022-11-06T00:04:28;101003.53;;;5.73;100.00
45541;BME280;31265;49.680;8.608;2022-11-06T00:06:58;100999.06;;;5.70;100.00
45541;BME280;31265;49.680;8.608;2022-11-06T00:09:26;100998.13;;;5.62;100.00
45541;BME280;31265;49.680;8.608;2022-11-06T00:11:58;100992.41;;;5.54;100.00
45541;BME280;31265;49.680;8.608;2022-11-06T00:14:27;100992.69;;;5.51;100.00
45541;BME280;31265;49.680;8.608;2022-11-06T00:16:58;100996.16;;;5.57;100.00
45541;BME280;31265;49.680;8.608;2022-11-06T00:19:27;101000.84;;;5.68;100.00
45541;BME280;31265;49.680;8.608;2022-11-06T00:21:57;100995.94;;;5.85;100.00
45541;BME280;31265;49.680;8.608;2022-11-06T00:24:30;101000.66;;;5.90;100.00
45541;BME280;31265;49.680;8.608;2022-11-06T00:27:03;101001.91;;;5.95;100.00
45541;BME280;31265;49.680;8.608;2022-11-06T00:29:34;100992.63;;;5.98;100.00
45541;BME280;31265;49.680;8.608;2022-11-06T00:32:04;100991.59;;;6.01;100.00
45541;BME280;31265;49.680;8.608;2022-11-06T00:34:36;100989.34;;;5.99;100.00
45541;BME280;31265;49.680;8.608;2022-11-06T00:37:06;100986.13;;;5.95;100.00
45541;BME280;31265;49.680;8.608;2022-11-06T00:39:36;100986.38;;;5.92;100.00
45541;BME280;31265;49.680;8.608;2022-11-06T00:42:07;100973.66;;;5.83;100.00
45541;BME280;31265;49.680;8.608;2022-11-06T00:44:40;100962.16;;;5.85;100.00
45541;BME280;31265;49.680;8.608;2022-11-06T00:47:11;100963.19;;;5.81;100.00
45541;BME280;31265;49.680;8.608;2022-11-06T00:49:41;100965.47;;;5.77;100.00
45541;BME280;31265;49.680;8.608;2022-11-06T00:52:11;100955.06;;;5.65;100.00
45541;BME280;31265;49.680;8.608;2022-11-06T00:54:47;100959.63;;;5.56;100.00
45541;BME280;31265;49.680;8.608;2022-11-06T00:57:21;100954.88;;;5.51;100.00
45541;BME280;31265;49.680;8.608;2022-11-06T00:59:53;100957.22;;;5.42;100.00
45541;BME280;31265;49.680;8.608;2022-11-06T01:02:24;100942.69;;;5.47;100.00
45541;BME280;31265;49.680;8.608;2022-11-06T01:04:55;100946.72;;;5.40;100.00
45541;BME280;31265;49.680;8.608;2022-11-06T01:07:29;100944.22;;;5.36;100.00
45541;BME280;31265;49.680;8.608;2022-11-06T01:09:59;100936.22;;;5.38;100.00
45541;BME280;31265;49.680;8.608;2022-11-06T01:12:31;100942.50;;;5.39;100.00
45541;BME280;31265;49.680;8.608;2022-11-06T01:15:04;100941.75;;;5.33;100.00
45541;BME280;31265;49.680;8.608;2022-11-06T01:17:34;100941.31;;;5.23;100.00
45541;BME280;31265;49.680;8.608;2022-11-06T01:20:05;100933.56;;;5.22;100.00
45541;BME280;31265;49.680;8.608;2022-11-06T01:22:37;100934.78;;;5.26;100.00
45541;BME280;31265;49.680;8.608;2022-11-06T01:25:09;100938.03;;;5.30;100.00
45541;BME280;31265;49.680;8.608;2022-11-06T01:27:42;100939.50;;;5.37;100.00
45541;BME280;31265;49.680;8.608;2022-11-06T01:30:13;100933.22;;;5.36;100.00
45541;BME280;31265;49.680;8.608;2022-11-06T01:32:45;100930.44;;;5.42;100.00
45541;BME280;31265;49.680;8.608;2022-11-06T01:35:19;100925.97;;;5.39;100.00
45541;BME280;31265;49.680;8.608;2022-11-06T01:37:49;100926.16;;;5.47;100.00
45541;BME280;31265;49.680;8.608;2022-11-06T01:40:21;100928.94;;;5.41;100.00
45541;BME280;31265;49.680;8.608;2022-11-06T01:42:52;100918.69;;;5.42;100.00
45541;BME280;31265;49.680;8.608;2022-11-06T01:45:32;100923.25;;;5.33;100.00
45541;BME280;31265;49.680;8.608;2022-11-06T01:48:05;100924.50;;;5.32;100.00
45541;BME280;31265;49.680;8.608;2022-11-06T01:50:35;100923.28;;;5.28;100.00
45541;BME280;31265;49.680;8.608;2022-11-06T01:53:05;100917.28;;;5.29;100.00
45541;BME280;31265;49.680;8.608;2022-11-06T01:55:39;100913.06;;;5.23;100.00
45541;BME280;31265;49.680;8.608;2022-11-06T01:58:16;100907.06;;;5.18;100.00
45541;BME280;31265;49.680;8.608;2022-11-06T02:00:47;100895.28;;;5.24;100.00
45541;BME280;31265;49.680;8.608;2022-11-06T02:03:22;100898.56;;;5.22;100.00
45541;BME280;31265;49.680;8.608;2022-11-06T02:05:58;100900.63;;;5.10;100.00
45541;BME280;31265;49.680;8.608;2022-11-06T02:08:32;100893.16;;;5.05;100.00
45541;BME280;31265;49.680;8.608;2022-11-06T02:11:04;100895.88;;;5.11;100.00
45541;BME280;31265;49.680;8.608;2022-11-06T02:13:43;100890.41;;;5.05;100.00
45541;BME280;31265;49.680;8.608;2022-11-06T02:16:30;100882.94;;;5.00;100.00
45541;BME280;31265;49.680;8.608;2022-11-06T02:19:27;100884.47;;;4.95;100.00
45541;BME280;31265;49.680;8.608;2022-11-06T02:22:22;100891.00;;;4.87;100.00
45541;BME280;31265;49.680;8.608;2022-11-06T02:25:05;100887.81;;;4.83;100.00
45541;BME280;31265;49.680;8.608;2022-11-06T02:27:37;100882.06;;;4.81;100.00
45541;BME280;31265;49.680;8.608;2022-11-06T02:30:07;100884.81;;;4.81;100.00
45541;BME280;31265;49.680;8.608;2022-11-06T02:32:39;100884.31;;;4.77;100.00
45541;BME280;31265;49.680;8.608;2022-11-06T02:35:17;100885.84;;;4.72;100.00
45541;BME280;31265;49.680;8.608;2022-11-06T02:37:50;100871.63;;;4.68;100.00
45541;BME280;31265;49.680;8.608;2022-11-06T02:40:21;100868.63;;;4.66;100.00
45541;BME280;31265;49.680;8.608;2022-11-06T02:42:56;100876.41;;;4.62;100.00
45541;BME280;31265;49.680;8.608;2022-11-06T02:45:26;100864.44;;;4.53;100.00
45541;BME280;31265;49.680;8.608;2022-11-06T02:47:59;100866.47;;;4.47;100.00
45541;BME280;31265;49.680;8.608;2022-11-06T02:50:32;100866.97;;;4.46;100.00
45541;BME280;31265;49.680;8.608;2022-11-06T02:53:04;100877.97;;;4.46;100.00
45541;BME280;31265;49.680;8.608;2022-11-06T02:55:36;100875.72;;;4.44;100.00
45541;BME280;31265;49.680;8.608;2022-11-06T02:58:13;100875.72;;;4.44;100.00
45541;BME280;31265;49.680;8.608;2022-11-06T03:00:47;100878.72;;;4.46;100.00
45541;BME280;31265;49.680;8.608;2022-11-06T03:03:21;100879.75;;;4.43;100.00
45541;BME280;31265;49.680;8.608;2022-11-06T03:05:53;100880.25;;;4.36;100.00
45541;BME280;31265;49.680;8.608;2022-11-06T03:08:27;100873.78;;;4.34;100.00
45541;BME280;31265;49.680;8.608;2022-11-06T03:11:04;100875.28;;;4.29;100.00
45541;BME280;31265;49.680;8.608;2022-11-06T03:13:43;100884.53;;;4.31;100.00
45541;BME280;31265;49.680;8.608;2022-11-06T03:16:22;100879.06;;;4.26;100.00
45541;BME280;31265;49.680;8.608;2022-11-06T03:19:01;100880.81;;;4.23;100.00
45541;BME280;31265;49.680;8.608;2022-11-06T03:21:37;100889.78;;;4.24;100.00
45541;BME280;31265;49.680;8.608;2022-11-06T03:24:12;100884.53;;;4.26;100.00
45541;BME280;31265;49.680;8.608;2022-11-06T03:26:44;100870.06;;;4.20;100.00
45541;BME280;31265;49.680;8.608;2022-11-06T03:29:17;100856.09;;;4.23;100.00
45541;BME280;31265;49.680;8.608;2022-11-06T03:31:50;100856.84;;;4.18;100.00
45541;BME280;31265;49.680;8.608;2022-11-06T03:34:27;100856.84;;;4.13;100.00
45541;BME280;31265;49.680;8.608;2022-11-06T03:37:04;100850.88;;;4.14;100.00
45541;BME280;31265;49.680;8.608;2022-11-06T03:39:38;100847.84;;;4.18;100.00
45541;BME280;31265;49.680;8.608;2022-11-06T03:42:12;100856.34;;;4.20;100.00
45541;BME280;31265;49.680;8.608;2022-11-06T03:44:46;100857.84;;;4.21;100.00
45541;BME280;31265;49.680;8.608;2022-11-06T03:47:17;100856.34;;;4.20;100.00
45541;BME280;31265;49.680;8.608;2022-11-06T03:49:50;100861.56;;;4.18;100.00
45541;BME280;31265;49.680;8.608;2022-11-06T03:52:24;100846.13;;;4.09;100.00
45541;BME280;31265;49.680;8.608;2022-11-06T03:55:00;100838.16;;;4.11;100.00
45541;BME280;31265;49.680;8.608;2022-11-06T03:57:34;100844.66;;;4.02;100.00
45541;BME280;31265;49.680;8.608;2022-11-06T04:00:08;100827.69;;;4.04;100.00
45541;BME280;31265;49.680;8.608;2022-11-06T04:02:43;100831.69;;;3.97;100.00
45541;BME280;31265;49.680;8.608;2022-11-06T04:05:16;100829.94;;;3.94;100.00
45541;BME280;31265;49.680;8.608;2022-11-06T04:07:50;100839.19;;;3.91;100.00
45541;BME280;31265;49.680;8.608;2022-11-06T04:10:34;100841.19;;;3.91;100.00
45541;BME280;31265;49.680;8.608;2022-11-06T04:13:22;100842.69;;;3.92;100.00
45541;BME280;31265;49.680;8.608;2022-11-06T04:16:12;100838.22;;;3.88;100.00
45541;BME280;31265;49.680;8.608;2022-11-06T04:18:41;100830.19;;;3.96;100.00
45541;BME280;31265;49.680;8.608;2022-11-06T04:21:16;100827.44;;;4.02;100.00
45541;BME280;31265;49.680;8.608;2022-11-06T04:27:08;100833.66;;;4.08;100.00
45541;BME280;31265;49.680;8.608;2022-11-06T04:29:50;100822.91;;;4.16;100.00
45541;BME280;31265;49.680;8.608;2022-11-06T04:32:30;100822.41;;;4.12;100.00
45541;BME280;31265;49.680;8.608;2022-11-06T04:35:04;100831.13;;;4.10;100.00
45541;BME280;31265;49.680;8.608;2022-11-06T04:37:37;100834.91;;;4.07;100.00
45541;BME280;31265;49.680;8.608;2022-11-06T04:40:14;100828.91;;;4.03;100.00
45541;BME280;31265;49.680;8.608;2022-11-06T04:42:49;100842.44;;;4.01;100.00
45541;BME280;31265;49.680;8.608;2022-11-06T04:45:23;100848.13;;;4.03;100.00
45541;BME280;31265;49.680;8.608;2022-11-06T04:47:54;100862.38;;;4.07;100.00
45541;BME280;31265;49.680;8.608;2022-11-06T04:50:25;100863.63;;;4.06;100.00
45541;BME280;31265;49.680;8.608;2022-11-06T04:52:56;100863.63;;;4.06;100.00
45541;BME280;31265;49.680;8.608;2022-11-06T04:55:28;100857.63;;;4.02;100.00
45541;BME280;31265;49.680;8.608;2022-11-06T04:57:56;100851.66;;;3.98;100.00
45541;BME280;31265;49.680;8.608;2022-11-06T05:00:28;100843.69;;;3.88;100.00
45541;BME280;31265;49.680;8.608;2022-11-06T05:02:58;100839.47;;;3.82;100.00
45541;BME280;31265;49.680;8.608;2022-11-06T05:05:26;100852.19;;;3.79;100.00
45541;BME280;31265;49.680;8.608;2022-11-06T05:07:55;100855.97;;;3.76;100.00
45541;BME280;31265;49.680;8.608;2022-11-06T05:10:23;100863.41;;;3.76;100.00
45541;BME280;31265;49.680;8.608;2022-11-06T05:12:52;100863.69;;;3.72;100.00
45541;BME280;31265;49.680;8.608;2022-11-06T05:15:20;100860.19;;;3.77;100.00
45541;BME280;31265;49.680;8.608;2022-11-06T05:17:48;100864.94;;;3.77;100.00
45541;BME280;31265;49.680;8.608;2022-11-06T05:20:19;100863.19;;;3.74;100.00
45541;BME280;31265;49.680;8.608;2022-11-06T05:22:48;100863.44;;;3.70;100.00
45541;BME280;31265;49.680;8.608;2022-11-06T05:25:24;100861.19;;;3.63;100.00
45541;BME280;31265;49.680;8.608;2022-11-06T05:27:53;100852.22;;;3.57;100.00
45541;BME280;31265;49.680;8.608;2022-11-06T05:30:21;100845.72;;;3.49;100.00
45541;BME280;31265;49.680;8.608;2022-11-06T05:32:50;100842.53;;;3.39;100.00
45541;BME280;31265;49.680;8.608;2022-11-06T05:35:21;100842.25;;;3.42;100.00
45541;BME280;31265;49.680;8.608;2022-11-06T05:37:50;100841.53;;;3.36;100.00
45541;BME280;31265;49.680;8.608;2022-11-06T05:40:18;100826.28;;;3.35;100.00
45541;BME280;31265;49.680;8.608;2022-11-06T05:42:46;100831.06;;;3.29;100.00
45541;BME280;31265;49.680;8.608;2022-11-06T05:45:16;100820.06;;;3.23;100.00
45541;BME280;31265;49.680;8.608;2022-11-06T05:47:44;100823.06;;;3.20;100.00
45541;BME280;31265;49.680;8.608;2022-11-06T05:50:13;100818.06;;;3.18;100.00
45541;BME280;31265;49.680;8.608;2022-11-06T05:52:43;100823.81;;;3.15;100.00
45541;BME280;31265;49.680;8.608;2022-11-06T05:55:11;100825.56;;;3.12;100.00
45541;BME280;31265;49.680;8.608;2022-11-06T05:57:42;100823.03;;;3.09;100.00
45541;BME280;31265;49.680;8.608;2022-11-06T06:00:12;100814.59;;;3.07;100.00
45541;BME280;31265;49.680;8.608;2022-11-06T06:02:42;100793.88;;;3.06;100.00
45541;BME280;31265;49.680;8.608;2022-11-06T06:05:11;100781.94;;;3.03;100.00
45541;BME280;31265;49.680;8.608;2022-11-06T06:07:44;100773.69;;;3.03;100.00
45541;BME280;31265;49.680;8.608;2022-11-06T06:10:14;100772.44;;;2.98;100.00
45541;BME280;31265;49.680;8.608;2022-11-06T06:12:42;100768.72;;;2.96;100.00
45541;BME280;31265;49.680;8.608;2022-11-06T06:15:10;100776.69;;;2.94;100.00
45541;BME280;31265;49.680;8.608;2022-11-06T06:17:41;100779.94;;;2.92;100.00
45541;BME280;31265;49.680;8.608;2022-11-06T06:20:11;100783.91;;;2.91;100.00
45541;BME280;31265;49.680;8.608;2022-11-06T06:22:40;100784.16;;;2.88;100.00
45541;BME280;31265;49.680;8.608;2022-11-06T06:25:10;100782.44;;;2.85;100.00
45541;BME280;31265;49.680;8.608;2022-11-06T06:27:49;100768.22;;;2.80;100.00
45541;BME280;31265;49.680;8.608;2022-11-06T06:30:19;100776.44;;;2.75;100.00
45541;BME280;31265;49.680;8.608;2022-11-06T06:32:52;100756.25;;;2.72;100.00
45541;BME280;31265;49.680;8.608;2022-11-06T06:35:23;100747.50;;;2.68;100.00
45541;BME280;31265;49.680;8.608;2022-11-06T06:37:52;100734.31;;;2.67;100.00
45541;BME280;31265;49.680;8.608;2022-11-06T06:40:22;100741.03;;;2.66;100.00
45541;BME280;31265;49.680;8.608;2022-11-06T06:42:55;100729.81;;;2.69;100.00
45541;BME280;31265;49.680;8.608;2022-11-06T06:45:24;100726.34;;;2.74;100.00
45541;BME280;31265;49.680;8.608;2022-11-06T06:47:53;100715.88;;;2.78;100.00
45541;BME280;31265;49.680;8.608;2022-11-06T06:50:21;100712.91;;;2.88;100.00
45541;BME280;31265;49.680;8.608;2022-11-06T06:52:54;100712.41;;;2.95;100.00
45541;BME280;31265;49.680;8.608;2022-11-06T06:55:24;100705.16;;;3.03;100.00
45541;BME280;31265;49.680;8.608;2022-11-06T06:57:55;100698.69;;;3.12;100.00
45541;BME280;31265;49.680;8.608;2022-11-06T07:00:25;100713.13;;;3.18;100.00
45541;BME280;31265;49.680;8.608;2022-11-06T07:02:54;100707.13;;;3.36;100.00
45541;BME280;31265;49.680;8.608;2022-11-06T07:05:22;100699.09;;;3.50;100.00
45541;BME280;31265;49.680;8.608;2022-11-06T07:07:52;100694.31;;;3.61;100.00
45541;BME280;31265;49.680;8.608;2022-11-06T07:10:20;100691.25;;;3.71;100.00
45541;BME280;31265;49.680;8.608;2022-11-06T07:12:51;100691.25;;;3.76;100.00
45541;BME280;31265;49.680;8.608;2022-11-06T07:15:19;100688.44;;;3.87;100.00
45541;BME280;31265;49.680;8.608;2022-11-06T07:17:50;100695.13;;;3.98;100.00
45541;BME280;31265;49.680;8.608;2022-11-06T07:20:19;100685.88;;;4.06;100.00
45541;BME280;31265;49.680;8.608;2022-11-06T07:22:47;100699.53;;;4.18;100.00
45541;BME280;31265;49.680;8.608;2022-11-06T07:25:16;100698.47;;;4.26;100.00
45541;BME280;31265;49.680;8.608;2022-11-06T07:27:44;100692.69;;;4.36;100.00
45541;BME280;31265;49.680;8.608;2022-11-06T07:30:14;100690.31;;;4.51;100.00
45541;BME280;31265;49.680;8.608;2022-11-06T07:32:42;100697.47;;;4.65;100.00
45541;BME280;31265;49.680;8.608;2022-11-06T07:35:10;100675.06;;;4.86;100.00
45541;BME280;31265;49.680;8.608;2022-11-06T07:37:41;100681.69;;;4.96;100.00
45541;BME280;31265;49.680;8.608;2022-11-06T07:40:10;100682.63;;;5.04;100.00
45541;BME280;31265;49.680;8.608;2022-11-06T07:42:42;100674.03;;;5.13;100.00
45541;BME280;31265;49.680;8.608;2022-11-06T07:45:16;100671.69;;;5.23;100.00
45541;BME280;31265;49.680;8.608;2022-11-06T07:47:44;100668.06;;;5.34;100.00
45541;BME280;31265;49.680;8.608;2022-11-06T07:50:13;100676.22;;;5.45;100.00
45541;BME280;31265;49.680;8.608;2022-11-06T07:52:41;100670.78;;;5.58;100.00
45541;BME280;31265;49.680;8.608;2022-11-06T07:55:10;100674.63;;;5.74;100.00
45541;BME280;31265;49.680;8.608;2022-11-06T07:57:39;100671.66;;;5.91;100.00
45541;BME280;31265;49.680;8.608;2022-11-06T08:00:09;100674.94;;;6.09;100.00
45541;BME280;31265;49.680;8.608;2022-11-06T08:02:44;100677.44;;;6.25;100.00
45541;BME280;31265;49.680;8.608;2022-11-06T08:05:13;100678.25;;;6.39;100.00
45541;BME280;31265;49.680;8.608;2022-11-06T08:07:41;100683.06;;;6.52;100.00
45541;BME280;31265;49.680;8.608;2022-11-06T08:10:10;100691.81;;;6.70;100.00
45541;BME280;31265;49.680;8.608;2022-11-06T08:12:38;100703.84;;;6.85;100.00
45541;BME280;31265;49.680;8.608;2022-11-06T08:15:06;100712.88;;;6.99;100.00
45541;BME280;31265;49.680;8.608;2022-11-06T08:17:35;100719.28;;;7.21;100.00
45541;BME280;31265;49.680;8.608;2022-11-06T08:20:06;100735.75;;;7.26;100.00
45541;BME280;31265;49.680;8.608;2022-11-06T08:22:35;100738.09;;;7.36;100.00
45541;BME280;31265;49.680;8.608;2022-11-06T08:25:05;100748.28;;;7.54;100.00
45541;BME280;31265;49.680;8.608;2022-11-06T08:27:33;100748.09;;;7.39;100.00
45541;BME280;31265;49.680;8.608;2022-11-06T08:30:03;100739.78;;;7.25;100.00
45541;BME280;31265;49.680;8.608;2022-11-06T08:32:31;100750.41;;;7.21;100.00
45541;BME280;31265;49.680;8.608;2022-11-06T08:35:00;100740.91;;;7.03;100.00
45541;BME280;31265;49.680;8.608;2022-11-06T08:37:33;100734.91;;;6.73;100.00
45541;BME280;31265;49.680;8.608;2022-11-06T08:40:01;100730.41;;;6.70;100.00
45541;BME280;31265;49.680;8.608;2022-11-06T08:42:30;100735.28;;;6.63;100.00
45541;BME280;31265;49.680;8.608;2022-11-06T08:44:58;100720.97;;;6.65;100.00
45541;BME280;31265;49.680;8.608;2022-11-06T08:47:27;100732.53;;;6.63;100.00
45541;BME280;31265;49.680;8.608;2022-11-06T08:49:56;100725.22;;;6.66;100.00
45541;BME280;31265;49.680;8.608;2022-11-06T08:52:25;100718.47;;;6.80;100.00
45541;BME280;31265;49.680;8.608;2022-11-06T08:55:01;100721.25;;;6.94;100.00
45541;BME280;31265;49.680;8.608;2022-11-06T08:57:30;100712.47;;;6.95;100.00
45541;BME280;31265;49.680;8.608;2022-11-06T08:59:59;100710.06;;;7.05;100.00
45541;BME280;31265;49.680;8.608;2022-11-06T09:02:27;100698.91;;;7.24;100.00
45541;BME280;31265;49.680;8.608;2022-11-06T09:04:56;100693.72;;;7.20;100.00
45541;BME280;31265;49.680;8.608;2022-11-06T09:07:25;100691.06;;;7.28;100.00
45541;BME280;31265;49.680;8.608;2022-11-06T09:09:53;100686.72;;;7.32;100.00
45541;BME280;31265;49.680;8.608;2022-11-06T09:12:25;100684.91;;;7.35;100.00
45541;BME280;31265;49.680;8.608;2022-11-06T09:14:53;100685.53;;;7.41;100.00
45541;BME280;31265;49.680;8.608;2022-11-06T09:17:22;100683.94;;;7.46;100.00
45541;BME280;31265;49.680;8.608;2022-11-06T09:19:52;100669.94;;;7.57;100.00
45541;BME280;31265;49.680;8.608;2022-11-06T09:22:20;100675.75;;;7.67;100.00
45541;BME280;31265;49.680;8.608;2022-11-06T09:24:48;100665.03;;;7.77;100.00
45541;BME280;31265;49.680;8.608;2022-11-06T09:27:31;100655.81;;;7.95;100.00
45541;BME280;31265;49.680;8.608;2022-11-06T09:30:00;100647.97;;;7.99;100.00
45541;BME280;31265;49.680;8.608;2022-11-06T09:32:28;100653.47;;;7.99;100.00
45541;BME280;31265;49.680;8.608;2022-11-06T09:34:58;100640.91;;;8.11;100.00
45541;BME280;31265;49.680;8.608;2022-11-06T09:37:26;100631.59;;;8.22;100.00
45541;BME280;31265;49.680;8.608;2022-11-06T09:39:55;100631.72;;;8.37;100.00
45541;BME280;31265;49.680;8.608;2022-11-06T09:42:41;100620.03;;;8.45;100.00
45541;BME280;31265;49.680;8.608;2022-11-06T09:45:17;100611.84;;;8.39;100.00
45541;BME280;31265;49.680;8.608;2022-11-06T09:47:51;100608.44;;;8.46;100.00
45541;BME280;31265;49.680;8.608;2022-11-06T09:50:26;100602.50;;;8.42;100.00
45541;BME280;31265;49.680;8.608;2022-11-06T09:53:01;100604.63;;;8.36;100.00
45541;BME280;31265;49.680;8.608;2022-11-06T09:55:37;100604.09;;;8.37;100.00
45541;BME280;31265;49.680;8.608;2022-11-06T09:58:12;100598.63;;;8.45;100.00
45541;BME280;31265;49.680;8.608;2022-11-06T10:00:43;100594.19;;;8.42;100.00
45541;BME280;31265;49.680;8.608;2022-11-06T10:03:16;100585.47;;;8.59;100.00
45541;BME280;31265;49.680;8.608;2022-11-06T10:05:51;100580.69;;;8.59;100.00
45541;BME280;31265;49.680;8.608;2022-11-06T10:08:23;100574.63;;;8.61;100.00
45541;BME280;31265;49.680;8.608;2022-11-06T10:10:59;100563.97;;;8.73;100.00
45541;BME280;31265;49.680;8.608;2022-11-06T10:13:44;100559.78;;;8.79;100.00
45541;BME280;31265;49.680;8.608;2022-11-06T10:16:32;100549.91;;;8.92;100.00
45541;BME280;31265;49.680;8.608;2022-11-06T10:19:09;100548.28;;;8.96;100.00
45541;BME280;31265;49.680;8.608;2022-11-06T10:21:45;100531.94;;;9.14;100.00
45541;BME280;31265;49.680;8.608;2022-11-06T10:24:21;100532.13;;;9.16;100.00
45541;BME280;31265;49.680;8.608;2022-11-06T10:26:52;100521.22;;;9.10;100.00
45541;BME280;31265;49.680;8.608;2022-11-06T10:29:50;100513.16;;;9.20;100.00
45541;BME280;31265;49.680;8.608;2022-11-06T10:32:56;100505.41;;;9.26;100.00
45541;BME280;31265;49.680;8.608;2022-11-06T10:35:35;100492.88;;;9.33;100.00
45541;BME280;31265;49.680;8.608;2022-11-06T10:38:11;100498.56;;;9.27;100.00
45541;BME280;31265;49.680;8.608;2022-11-06T10:40:43;100494.72;;;9.30;100.00
45541;BME280;31265;49.680;8.608;2022-11-06T10:43:23;100494.00;;;9.37;100.00
45541;BME280;31265;49.680;8.608;2022-11-06T10:46:03;100496.22;;;9.54;100.00
45541;BME280;31265;49.680;8.608;2022-11-06T10:48:38;100491.06;;;9.51;100.00
45541;BME280;31265;49.680;8.608;2022-11-06T10:51:23;100487.78;;;9.67;100.00
45541;BME280;31265;49.680;8.608;2022-11-06T10:54:02;100491.47;;;9.70;100.00
45541;BME280;31265;49.680;8.608;2022-11-06T10:56:45;100488.31;;;9.81;100.00
45541;BME280;31265;49.680;8.608;2022-11-06T10:59:19;100487.41;;;9.79;100.00
45541;BME280;31265;49.680;8.608;2022-11-06T11:01:50;100482.97;;;9.91;100.00
45541;BME280;31265;49.680;8.608;2022-11-06T11:04:19;100483.91;;;9.86;100.00
45541;BME280;31265;49.680;8.608;2022-11-06T11:06:50;100486.13;;;9.95;100.00
45541;BME280;31265;49.680;8.608;2022-11-06T11:09:26;100477.63;;;10.08;100.00
45541;BME280;31265;49.680;8.608;2022-11-06T11:11:56;100475.94;;;10.21;100.00
45541;BME280;31265;49.680;8.608;2022-11-06T11:14:26;100463.38;;;10.27;100.00
45541;BME280;31265;49.680;8.608;2022-11-06T11:16:59;100457.13;;;10.11;100.00
45541;BME280;31265;49.680;8.608;2022-11-06T11:19:35;100455.25;;;10.22;100.00
45541;BME280;31265;49.680;8.608;2022-11-06T11:22:16;100446.03;;;10.11;100.00
45541;BME280;31265;49.680;8.608;2022-11-06T11:24:58;100444.91;;;10.15;100.00
45541;BME280;31265;49.680;8.608;2022-11-06T11:27:29;100433.44;;;10.18;100.00
45541;BME280;31265;49.680;8.608;2022-11-06T11:29:59;100421.41;;;10.23;100.00
45541;BME280;31265;49.680;8.608;2022-11-06T11:32:28;100410.91;;;10.29;100.00
45541;BME280;31265;49.680;8.608;2022-11-06T11:34:58;100414.19;;;10.51;100.00
45541;BME280;31265;49.680;8.608;2022-11-06T11:37:28;100406.75;;;10.61;100.00
45541;BME280;31265;49.680;8.608;2022-11-06T11:40:18;100411.50;;;10.76;100.00
45541;BME280;31265;49.680;8.608;2022-11-06T11:42:47;100406.88;;;10.71;100.00
45541;BME280;31265;49.680;8.608;2022-11-06T11:45:17;100403.91;;;10.76;100.00
45541;BME280;31265;49.680;8.608;2022-11-06T11:47:48;100399.63;;;10.83;100.00
45541;BME280;31265;49.680;8.608;2022-11-06T11:50:24;100387.78;;;10.75;100.00
45541;BME280;31265;49.680;8.608;2022-11-06T11:53:02;100390.72;;;10.85;100.00
45541;BME280;31265;49.680;8.608;2022-11-06T11:55:39;100371.41;;;10.94;100.00
45541;BME280;31265;49.680;8.608;2022-11-06T11:58:20;100346.69;;;11.14;100.00
45541;BME280;31265;49.680;8.608;2022-11-06T12:00:52;100348.06;;;11.30;100.00
45541;BME280;31265;49.680;8.608;2022-11-06T12:03:26;100338.16;;;11.37;100.00
45541;BME280;31265;49.680;8.608;2022-11-06T12:06:06;100338.41;;;11.74;100.00
45541;BME280;31265;49.680;8.608;2022-11-06T12:08:37;100333.06;;;11.93;100.00
45541;BME280;31265;49.680;8.608;2022-11-06T12:11:08;100334.38;;;11.92;100.00
45541;BME280;31265;49.680;8.608;2022-11-06T12:13:40;100320.66;;;12.12;100.00
45541;BME280;31265;49.680;8.608;2022-11-06T12:16:16;100315.28;;;12.41;100.00
45541;BME280;31265;49.680;8.608;2022-11-06T12:18:50;100315.34;;;12.51;100.00
45541;BME280;31265;49.680;8.608;2022-11-06T12:21:27;100303.84;;;12.64;100.00
45541;BME280;31265;49.680;8.608;2022-11-06T12:24:02;100305.63;;;12.69;100.00
45541;BME280;31265;49.680;8.608;2022-11-06T12:26:35;100300.16;;;12.34;100.00
45541;BME280;31265;49.680;8.608;2022-11-06T12:29:10;100295.72;;;12.31;100.00
45541;BME280;31265;49.680;8.608;2022-11-06T12:31:44;100298.41;;;12.12;100.00
45541;BME280;31265;49.680;8.608;2022-11-06T12:34:20;100297.91;;;11.88;100.00
45541;BME280;31265;49.680;8.608;2022-11-06T12:37:01;100280.97;;;11.94;100.00
45541;BME280;31265;49.680;8.608;2022-11-06T12:39:36;100285.59;;;11.56;100.00
45541;BME280;31265;49.680;8.608;2022-11-06T12:42:10;100274.16;;;11.52;100.00
45541;BME280;31265;49.680;8.608;2022-11-06T12:44:39;100280.19;;;11.41;100.00
45541;BME280;31265;49.680;8.608;2022-11-06T12:47:15;100281.53;;;11.32;100.00
45541;BME280;31265;49.680;8.608;2022-11-06T12:50:15;100265.63;;;11.33;100.00
45541;BME280;31265;49.680;8.608;2022-11-06T12:55:50;100247.28;;;11.55;100.00
45541;BME280;31265;49.680;8.608;2022-11-06T12:58:38;100238.69;;;11.78;100.00
45541;BME280;31265;49.680;8.608;2022-11-06T13:01:12;100237.34;;;11.79;100.00
45541;BME280;31265;49.680;8.608;2022-11-06T13:04:06;100231.97;;;11.81;100.00
45541;BME280;31265;49.680;8.608;2022-11-06T13:06:57;100223.38;;;11.69;100.00
45541;BME280;31265;49.680;8.608;2022-11-06T13:09:36;100214.75;;;11.65;100.00
45541;BME280;31265;49.680;8.608;2022-11-06T13:12:14;100216.28;;;11.41;100.00
45541;BME280;31265;49.680;8.608;2022-11-06T13:14:59;100213.25;;;11.47;100.00
45541;BME280;31265;49.680;8.608;2022-11-06T13:17:35;100209.41;;;11.42;100.00
45541;BME280;31265;49.680;8.608;2022-11-06T13:20:14;100208.69;;;11.41;100.00
45541;BME280;31265;49.680;8.608;2022-11-06T13:22:50;100200.41;;;11.34;100.00
45541;BME280;31265;49.680;8.608;2022-11-06T13:25:29;100200.25;;;11.49;100.00